This demonstration page uses our WeatherBlox Daily Observations layout. Learn more.

38.88101, -77.10428

Hourly Observations for June 22, 2017

Temp ( °F °C ) Dew Point ( °F °C ) Humidity (%) Winds ( mph kmh ) Pressure ( in mb ) Visibility ( mi km ) Precip ( " mm )
12:52 am 00:52 Cloudy 80 26.7 70 21.1 71 71 N 3 6 29.97 1015 10 16.09344 0 0
1:52 am 01:52 Cloudy 79 26.1 70 21.1 74 74 SW 3 6 29.97 1015 10 16.09344 0 0
2:52 am 02:52 Cloudy 78 25.6 71 21.7 79 79 S 7 11 29.97 1015 10 16.09344 0 0
3:52 am 03:52 Mostly Cloudy 77 25 71 21.7 82 82 SW 6 9 29.97 1015 10 16.09344 0 0
4:52 am 04:52 Mostly Cloudy 76 24.4 70 21.1 82 82 NW 3 6 29.97 1015 10 16.09344 0 0
5:52 am 05:52 Mostly Cloudy 76 24.4 71 21.7 85 85 Calm 30 1016 10 16.09344 0 0
6:52 am 06:52 Mostly Cloudy 77 25 69 20.6 77 77 E 3 6 30 1016 10 16.09344 0 0
7:52 am 07:52 Mostly Cloudy 79 26.1 72 22.2 79 79 S 5 7 30 1016 10 16.09344 0 0
8:52 am 08:52 Cloudy 80 26.7 72 22.2 76 76 S 3 6 30 1016 10 16.09344 0 0
9:52 am 09:52 Cloudy 83 28.3 72 22.2 70 70 S 8 13 30 1016 10 16.09344 0 0
10:52 am 10:52 Cloudy 84 28.9 72 22.2 67 67 SSE 8 13 29.97 1015 10 16.09344 0 0
11:52 am 11:52 Cloudy 86 30 73 22.8 65 65 S 9 15 30 1016 10 16.09344 0 0
12:52 pm 12:52 Cloudy 87 30.6 67 19.4 51 51 NW 9 15 30 1016 10 16.09344 0 0
1:52 pm 13:52 Cloudy 87 30.6 69 20.6 55 55 WSW 9 15 29.97 1015 10 16.09344 0 0
2:52 pm 14:52 Cloudy 88 31.1 70 21.1 55 55 WSW 12 19 29.97 1015 10 16.09344 0 0
3:52 pm 15:52 Cloudy 88 31.1 68 20 52 52 WSW 9 15 29.97 1015 10 16.09344 0 0
4:52 pm 16:52 Cloudy 87 30.6 69 20.6 55 55 SW 13 20 29.94 1014 10 16.09344 0 0
5:52 pm 17:52 Cloudy 87 30.6 71 21.7 59 59 SSW 8 13 29.94 1014 10 16.09344 0 0
6:52 pm 18:52 Cloudy 87 30.6 71 21.7 59 59 SSW 9 15 29.94 1014 10 16.09344 0 0
7:52 pm 19:52 Sunny 84 28.9 76 24.4 77 77 S 9 15 29.91 1013 10 16.09344 0 0
8:52 pm 20:52 Cloudy 84 28.9 74 23.3 72 72 SSW 8 13 29.94 1014 10 16.09344 0 0
9:52 pm 21:52 Mostly Cloudy 82 27.8 73 22.8 74 74 SSW 8 13 29.94 1014 10 16.09344 0 0
10:52 pm 22:52 Mostly Cloudy 81 27.2 77 25 88 88 S 7 11 29.94 1014 10 16.09344 0 0
11:52 pm 23:52 Cloudy 80 26.7 75 23.9 85 85 S 8 13 29.94 1014 10 16.09344 0 0

Powered by AerisWeather